Time;durP1;ratioP1;P1;durP2;ratioP2;P2;SDS_P1;SDS_P2;PMS_P1;PMS_P2;Temp;Humidity;BMP_temperature;BMP_pressure;BME280_temperature;BME280_humidity;BME280_pressure;Samples;Min_cycle;Max_cycle;Signal;HPM_P1;HPM_P2
2021/12/07 00:00:27;;;;;;;24.05;14.40;;;;;;;;;;4847726;29;20116;-72
2021/12/07 00:02:54;;;;;;;29.27;15.43;;;;;;;;;;4858973;29;20132;-73
2021/12/07 00:05:20;;;;;;;24.85;14.02;;;;;;;;;;4859543;29;20045;-71
2021/12/07 00:07:46;;;;;;;21.95;13.05;;;;;;;;;;4858865;29;20037;-72
2021/12/07 00:10:13;;;;;;;19.92;13.02;;;;;;;;;;4859281;29;20396;-73
2021/12/07 00:12:42;;;;;;;24.30;12.77;;;;;;;;;;4859375;29;20076;-72
2021/12/07 00:15:09;;;;;;;19.70;12.65;;;;;;;;;;4857700;29;20437;-74
2021/12/07 00:17:35;;;;;;;18.48;10.70;;;;;;;;;;4859305;29;20098;-71
2021/12/07 00:20:06;;;;;;;16.98;10.43;;;;;;;;;;4859393;29;20026;-70
2021/12/07 00:22:32;;;;;;;17.10;11.38;;;;;;;;;;4858667;29;20049;-72
2021/12/07 00:24:58;;;;;;;22.77;12.77;;;;;;;;;;4859571;29;20029;-71
2021/12/07 00:27:24;;;;;;;23.95;14.07;;;;;;;;;;4859328;29;20038;-70
2021/12/07 00:29:49;;;;;;;21.30;12.82;;;;;;;;;;4858685;29;20041;-71
2021/12/07 00:35:02;;;;;;;20.65;12.38;;;;;;;;;;4857429;29;20136;-69
2021/12/07 00:37:32;;;;;;;24.90;13.00;;;;;;;;;;4858967;29;20076;-71
2021/12/07 00:39:59;;;;;;;20.35;12.73;;;;;;;;;;4873518;29;20045;-69
2021/12/07 00:42:25;;;;;;;20.30;12.52;;;;;;;;;;4859006;29;20037;-71
2021/12/07 00:44:51;;;;;;;17.15;10.13;;;;;;;;;;4872835;29;20044;-70
2021/12/07 00:47:17;;;;;;;15.93;9.80;;;;;;;;;;4858788;29;20033;-71
2021/12/07 00:49:44;;;;;;;19.63;10.55;;;;;;;;;;4857510;29;20044;-71
2021/12/07 00:52:11;;;;;;;16.80;10.07;;;;;;;;;;4857044;29;20029;-73
2021/12/07 00:54:37;;;;;;;16.00;8.55;;;;;;;;;;4872694;29;20393;-72
2021/12/07 00:57:03;;;;;;;11.68;6.57;;;;;;;;;;4857377;29;20030;-73
2021/12/07 00:59:30;;;;;;;11.00;5.82;;;;;;;;;;4857138;29;20466;-72
2021/12/07 01:01:57;;;;;;;8.52;4.68;;;;;;;;;;4857448;29;20705;-72
2021/12/07 01:04:26;;;;;;;7.05;3.92;;;;;;;;;;4857406;29;20412;-72
2021/12/07 01:25:40;;;;;;;10.35;4.47;;;;;;;;;;4856898;29;20425;-70
2021/12/07 01:28:26;;;;;;;8.75;4.82;;;;;;;;;;4856765;29;20477;-72
2021/12/07 01:31:02;;;;;;;8.95;5.03;;;;;;;;;;4872365;29;20080;-70
2021/12/07 01:46:43;;;;;;;11.15;5.00;;;;;;;;;;4860440;29;20097;-72
2021/12/07 01:59:48;;;;;;;8.32;5.45;;;;;;;;;;4860323;29;20034;-71
2021/12/07 02:02:16;;;;;;;13.27;6.43;;;;;;;;;;4875455;29;20140;-71
2021/12/07 02:04:43;;;;;;;9.45;6.30;;;;;;;;;;4860156;29;20033;-71
2021/12/07 02:07:13;;;;;;;11.82;6.55;;;;;;;;;;4875449;29;20042;-72
2021/12/07 02:09:46;;;;;;;12.85;7.13;;;;;;;;;;4875316;29;20038;-70
2021/12/07 02:12:13;;;;;;;11.57;7.65;;;;;;;;;;4875865;29;20034;-71
2021/12/07 02:14:41;;;;;;;13.38;7.15;;;;;;;;;;4870894;29;20494;-70
2021/12/07 02:17:13;;;;;;;14.38;9.05;;;;;;;;;;4859703;29;20033;-70
2021/12/07 02:19:42;;;;;;;15.27;9.80;;;;;;;;;;4859704;29;20041;-71
2021/12/07 02:22:10;;;;;;;16.50;10.77;;;;;;;;;;4861107;29;20032;-71
2021/12/07 02:24:41;;;;;;;17.00;10.50;;;;;;;;;;4861550;29;20446;-73
2021/12/07 02:27:07;;;;;;;16.23;10.32;;;;;;;;;;4860555;29;20038;-71
2021/12/07 02:29:34;;;;;;;16.15;10.63;;;;;;;;;;4845798;29;20029;-72
2021/12/07 02:32:02;;;;;;;14.98;9.98;;;;;;;;;;4876606;29;20029;-72
2021/12/07 02:34:29;;;;;;;18.25;11.38;;;;;;;;;;4859705;29;20029;-71
2021/12/07 02:36:57;;;;;;;15.02;10.25;;;;;;;;;;4860873;29;20408;-70
2021/12/07 02:39:33;;;;;;;17.23;11.02;;;;;;;;;;4861115;29;20042;-70
2021/12/07 02:42:03;;;;;;;19.90;11.30;;;;;;;;;;4839192;29;20153;-72
2021/12/07 02:44:30;;;;;;;14.00;9.43;;;;;;;;;;4841623;29;20085;-74
2021/12/07 02:46:57;;;;;;;17.23;10.32;;;;;;;;;;4841597;29;20046;-70
2021/12/07 02:49:23;;;;;;;16.10;9.45;;;;;;;;;;4842800;29;20034;-75
2021/12/07 02:51:50;;;;;;;14.93;9.75;;;;;;;;;;4861870;29;20038;-70
2021/12/07 02:54:17;;;;;;;16.52;10.50;;;;;;;;;;4843512;29;20026;-69
2021/12/07 02:56:44;;;;;;;19.27;10.43;;;;;;;;;;4841471;29;20034;-71
2021/12/07 02:59:10;;;;;;;14.77;10.88;;;;;;;;;;4841230;29;20542;-71
2021/12/07 03:01:43;;;;;;;13.50;9.07;;;;;;;;;;4840986;29;20052;-72
2021/12/07 03:04:16;;;;;;;12.90;9.65;;;;;;;;;;4842598;29;20042;-71
2021/12/07 03:07:06;;;;;;;14.63;9.10;;;;;;;;;;4842666;29;20129;-71
2021/12/07 03:28:30;;;;;;;14.68;9.90;;;;;;;;;;4859262;29;20824;-75
2021/12/07 03:30:57;;;;;;;15.00;9.25;;;;;;;;;;4859125;29;20493;-78
2021/12/07 03:33:22;;;;;;;15.85;10.30;;;;;;;;;;4859300;29;20043;-77
2021/12/07 03:35:49;;;;;;;15.65;9.68;;;;;;;;;;4841821;29;20069;-71
2021/12/07 03:38:15;;;;;;;12.63;8.70;;;;;;;;;;4855710;29;20088;-71
2021/12/07 03:40:41;;;;;;;15.18;8.73;;;;;;;;;;4856114;29;20034;-75
2021/12/07 03:43:09;;;;;;;10.93;7.88;;;;;;;;;;4856035;29;20046;-72
2021/12/07 03:45:36;;;;;;;13.30;8.15;;;;;;;;;;4840590;29;20022;-71
2021/12/07 03:48:04;;;;;;;11.90;8.27;;;;;;;;;;4848784;29;20076;-71
2021/12/07 03:50:31;;;;;;;10.60;7.25;;;;;;;;;;4858715;29;20346;-71
2021/12/07 03:52:57;;;;;;;12.98;7.05;;;;;;;;;;4859045;29;20037;-73
2021/12/07 03:55:23;;;;;;;10.82;7.72;;;;;;;;;;4858223;29;20049;-74
2021/12/07 03:57:50;;;;;;;11.77;7.22;;;;;;;;;;4859499;29;20041;-71
2021/12/07 04:00:21;;;;;;;13.60;7.78;;;;;;;;;;4874264;29;20029;-71
2021/12/07 04:02:54;;;;;;;11.32;7.68;;;;;;;;;;4858540;29;20155;-71
2021/12/07 04:05:23;;;;;;;11.15;7.85;;;;;;;;;;4874248;29;20046;-71
2021/12/07 04:07:51;;;;;;;14.07;8.85;;;;;;;;;;4859798;29;20033;-72
2021/12/07 04:10:20;;;;;;;16.00;10.23;;;;;;;;;;4858682;29;20029;-71
2021/12/07 04:12:46;;;;;;;18.02;10.90;;;;;;;;;;4853479;29;20041;-70
2021/12/07 04:15:15;;;;;;;16.65;11.88;;;;;;;;;;4855909;29;20041;-70
2021/12/07 04:17:42;;;;;;;23.33;13.32;;;;;;;;;;4854271;29;20041;-71
2021/12/07 04:20:11;;;;;;;16.90;12.05;;;;;;;;;;4858608;29;20094;-70
2021/12/07 04:22:37;;;;;;;18.92;12.27;;;;;;;;;;4858178;29;20512;-70
2021/12/07 04:25:06;;;;;;;19.27;13.20;;;;;;;;;;4859705;29;20046;-70
2021/12/07 04:27:37;;;;;;;18.90;12.85;;;;;;;;;;4859822;29;20045;-70
2021/12/07 04:30:07;;;;;;;22.48;14.88;;;;;;;;;;4859597;29;20043;-71
2021/12/07 04:32:32;;;;;;;23.08;15.38;;;;;;;;;;4859525;29;20477;-70
2021/12/07 04:34:58;;;;;;;20.02;13.18;;;;;;;;;;4859530;29;20048;-70
2021/12/07 04:37:24;;;;;;;21.85;14.02;;;;;;;;;;4860419;29;20057;-70
2021/12/07 04:39:50;;;;;;;21.00;14.38;;;;;;;;;;4859275;29;20049;-70
2021/12/07 04:42:16;;;;;;;20.52;13.50;;;;;;;;;;4859306;29;20100;-68
2021/12/07 04:44:50;;;;;;;19.23;13.45;;;;;;;;;;4859225;29;20045;-70
2021/12/07 04:47:24;;;;;;;14.20;9.68;;;;;;;;;;4858986;29;20442;-72
2021/12/07 04:58:17;;;;;;;12.27;8.80;;;;;;;;;;4858756;29;20046;-76
2021/12/07 05:00:42;;;;;;;12.50;8.68;;;;;;;;;;4858250;29;20109;-72
2021/12/07 05:03:12;;;;;;;14.38;9.30;;;;;;;;;;4857713;29;20136;-72
2021/12/07 05:05:44;;;;;;;18.52;10.48;;;;;;;;;;4859919;29;20098;-72
2021/12/07 05:08:14;;;;;;;14.88;8.57;;;;;;;;;;4862856;29;20117;-73
2021/12/07 05:23:55;;;;;;;18.90;11.27;;;;;;;;;;4864763;29;20048;-77
2021/12/07 05:34:51;;;;;;;16.40;10.60;;;;;;;;;;4862997;29;20400;-73
2021/12/07 05:40:05;;;;;;;20.17;12.00;;;;;;;;;;4863000;29;20502;-74
2021/12/07 05:42:31;;;;;;;15.82;11.52;;;;;;;;;;4862775;29;20026;-74
2021/12/07 05:44:57;;;;;;;20.52;13.75;;;;;;;;;;4862531;29;20560;-76
2021/12/07 05:47:23;;;;;;;17.55;12.23;;;;;;;;;;4862824;29;20049;-75
2021/12/07 05:49:50;;;;;;;16.70;11.35;;;;;;;;;;4862677;29;20496;-75
2021/12/07 05:52:15;;;;;;;13.65;10.25;;;;;;;;;;4862651;29;20076;-73
2021/12/07 05:54:41;;;;;;;18.67;13.27;;;;;;;;;;4862661;29;20441;-76
2021/12/07 05:57:07;;;;;;;18.88;12.20;;;;;;;;;;4861633;29;20033;-74
2021/12/07 05:59:33;;;;;;;20.00;13.45;;;;;;;;;;4862358;29;20485;-73
2021/12/07 06:01:59;;;;;;;19.23;13.70;;;;;;;;;;4856647;29;20053;-75
2021/12/07 06:04:25;;;;;;;18.90;13.55;;;;;;;;;;4848776;29;20389;-71
2021/12/07 06:06:51;;;;;;;31.80;12.43;;;;;;;;;;4843970;29;20038;-75
2021/12/07 06:09:17;;;;;;;30.90;13.10;;;;;;;;;;4857638;29;20090;-72
2021/12/07 06:11:44;;;;;;;22.35;12.07;;;;;;;;;;4862160;29;20033;-75
2021/12/07 06:14:11;;;;;;;20.48;9.60;;;;;;;;;;4862144;29;20052;-77
2021/12/07 06:16:38;;;;;;;14.70;9.25;;;;;;;;;;4862126;29;20108;-75
2021/12/07 06:19:03;;;;;;;16.80;7.63;;;;;;;;;;4857828;29;20078;-74
2021/12/07 06:21:29;;;;;;;17.27;6.70;;;;;;;;;;4852153;29;20072;-75
2021/12/07 06:23:55;;;;;;;15.50;6.88;;;;;;;;;;4857173;29;20041;-72
2021/12/07 06:26:21;;;;;;;31.98;8.32;;;;;;;;;;4862196;29;20032;-77
2021/12/07 06:28:48;;;;;;;16.17;8.18;;;;;;;;;;4859837;29;20516;-75
2021/12/07 06:31:13;;;;;;;11.95;7.82;;;;;;;;;;4852014;29;20046;-77
2021/12/07 06:33:39;;;;;;;11.15;7.97;;;;;;;;;;4844304;29;20109;-76
2021/12/07 06:36:06;;;;;;;19.58;10.43;;;;;;;;;;4861533;29;20397;-74
2021/12/07 06:38:33;;;;;;;15.73;10.35;;;;;;;;;;4861593;29;20065;-76
2021/12/07 06:41:03;;;;;;;20.13;9.35;;;;;;;;;;4861641;29;20033;-75
2021/12/07 06:43:29;;;;;;;15.25;9.52;;;;;;;;;;4861615;29;20041;-72
2021/12/07 06:45:55;;;;;;;15.93;8.20;;;;;;;;;;4861440;29;20030;-72
2021/12/07 06:48:21;;;;;;;13.38;7.97;;;;;;;;;;4860102;29;20037;-73
2021/12/07 06:50:47;;;;;;;14.60;9.57;;;;;;;;;;4861412;29;20094;-71
2021/12/07 06:53:13;;;;;;;18.02;10.95;;;;;;;;;;4861667;29;20040;-73
2021/12/07 06:55:39;;;;;;;14.98;9.35;;;;;;;;;;4861804;29;20026;-72
2021/12/07 06:58:05;;;;;;;16.60;9.07;;;;;;;;;;4861011;29;20113;-72
2021/12/07 07:00:32;;;;;;;11.95;8.60;;;;;;;;;;4861322;29;20112;-73
2021/12/07 07:02:58;;;;;;;17.05;10.27;;;;;;;;;;4861206;29;20519;-73
2021/12/07 07:05:24;;;;;;;15.23;9.98;;;;;;;;;;4861419;29;20116;-72
2021/12/07 07:07:50;;;;;;;15.98;10.45;;;;;;;;;;4861131;29;20113;-71
2021/12/07 07:10:18;;;;;;;20.58;11.60;;;;;;;;;;4861171;29;20113;-72
2021/12/07 07:12:46;;;;;;;19.15;11.43;;;;;;;;;;4860968;29;20113;-72
2021/12/07 07:15:12;;;;;;;20.08;12.65;;;;;;;;;;4861311;29;20057;-72
2021/12/07 07:17:39;;;;;;;14.20;9.45;;;;;;;;;;4861307;29;20044;-71
2021/12/07 07:20:08;;;;;;;13.50;8.70;;;;;;;;;;4861612;29;20116;-72
2021/12/07 07:22:34;;;;;;;14.30;9.27;;;;;;;;;;4860468;29;20049;-72
2021/12/07 07:25:00;;;;;;;13.82;8.82;;;;;;;;;;4860957;29;20037;-72
2021/12/07 07:27:26;;;;;;;14.80;9.90;;;;;;;;;;4860766;29;20037;-72
2021/12/07 07:29:52;;;;;;;20.08;9.95;;;;;;;;;;4860628;29;20033;-76
2021/12/07 07:32:18;;;;;;;29.50;16.58;;;;;;;;;;4857094;29;20475;-71
2021/12/07 07:34:44;;;;;;;36.13;13.25;;;;;;;;;;4855010;29;20472;-75
2021/12/07 07:37:10;;;;;;;19.27;9.90;;;;;;;;;;4843666;29;20054;-77
2021/12/07 07:39:35;;;;;;;19.77;10.38;;;;;;;;;;4855269;29;20044;-76
2021/12/07 07:42:02;;;;;;;15.05;8.35;;;;;;;;;;4860524;29;20596;-74
2021/12/07 07:44:42;;;;;;;14.70;8.60;;;;;;;;;;4853680;29;20453;-76
2021/12/07 07:47:08;;;;;;;11.27;7.63;;;;;;;;;;4852140;29;20042;-71
2021/12/07 07:49:33;;;;;;;12.68;7.00;;;;;;;;;;4844221;29;20054;-75
2021/12/07 07:52:00;;;;;;;7.50;5.43;;;;;;;;;;4860551;29;20033;-79
2021/12/07 07:54:28;;;;;;;8.68;5.78;;;;;;;;;;4860115;29;20137;-73
2021/12/07 07:56:54;;;;;;;12.75;6.25;;;;;;;;;;4860209;29;20048;-76
2021/12/07 07:59:20;;;;;;;16.25;7.68;;;;;;;;;;4859777;29;20029;-77
2021/12/07 08:01:46;;;;;;;12.15;5.85;;;;;;;;;;4859882;29;20041;-73
2021/12/07 08:04:11;;;;;;;9.15;6.30;;;;;;;;;;4841200;29;20109;-76
2021/12/07 08:06:37;;;;;;;10.70;5.57;;;;;;;;;;4846618;29;20022;-75
2021/12/07 08:09:05;;;;;;;16.35;6.80;;;;;;;;;;4873839;29;20030;-75
2021/12/07 08:11:33;;;;;;;9.57;6.38;;;;;;;;;;4859770;29;20117;-75
2021/12/07 08:13:59;;;;;;;13.27;6.95;;;;;;;;;;4856473;29;20029;-76
2021/12/07 08:16:26;;;;;;;10.60;7.57;;;;;;;;;;4858352;29;20045;-71
2021/12/07 08:18:53;;;;;;;11.35;7.45;;;;;;;;;;4857414;29;20064;-71
2021/12/07 08:21:22;;;;;;;10.30;6.63;;;;;;;;;;4839691;29;20132;-73
2021/12/07 08:23:48;;;;;;;11.88;6.10;;;;;;;;;;4841725;29;20159;-72
2021/12/07 08:26:20;;;;;;;13.18;5.22;;;;;;;;;;4859793;29;20044;-74
2021/12/07 08:28:50;;;;;;;10.52;4.93;;;;;;;;;;4853680;29;20503;-72
2021/12/07 08:31:16;;;;;;;20.80;8.15;;;;;;;;;;4838778;29;20435;-70
2021/12/07 08:33:42;;;;;;;13.52;5.07;;;;;;;;;;4841622;29;20033;-73
2021/12/07 08:36:08;;;;;;;39.70;6.45;;;;;;;;;;4840111;29;20133;-70
2021/12/07 08:38:34;;;;;;;18.52;6.00;;;;;;;;;;4841613;29;20034;-71
2021/12/07 08:41:00;;;;;;;12.25;4.80;;;;;;;;;;4841156;29;20146;-72
2021/12/07 08:43:29;;;;;;;42.42;7.60;;;;;;;;;;4846700;29;20450;-73
2021/12/07 08:45:56;;;;;;;8.05;4.43;;;;;;;;;;4846970;29;20038;-71
2021/12/07 08:48:23;;;;;;;39.22;7.32;;;;;;;;;;4847309;29;20397;-71
2021/12/07 08:50:49;;;;;;;7.68;3.38;;;;;;;;;;4846741;29;20069;-71
2021/12/07 08:53:17;;;;;;;8.00;3.20;;;;;;;;;;4847230;29;20109;-70
2021/12/07 09:01:20;;;;;;;8.50;2.92;;;;;;;;;;4847036;29;20073;-69
2021/12/07 09:03:47;;;;;;;7.10;3.15;;;;;;;;;;4847151;29;20042;-70
2021/12/07 09:06:14;;;;;;;12.32;3.60;;;;;;;;;;4846579;29;20457;-70
2021/12/07 09:08:40;;;;;;;18.20;4.40;;;;;;;;;;4846215;29;20067;-71
2021/12/07 09:11:07;;;;;;;7.72;3.08;;;;;;;;;;4846658;29;20429;-71
2021/12/07 09:13:34;;;;;;;13.60;3.08;;;;;;;;;;4857198;29;20025;-70
2021/12/07 09:16:02;;;;;;;11.77;3.28;;;;;;;;;;4863986;29;20034;-70
2021/12/07 09:18:28;;;;;;;6.15;3.25;;;;;;;;;;4864782;29;20032;-71
2021/12/07 09:20:55;;;;;;;11.65;4.00;;;;;;;;;;4863669;29;20061;-73
2021/12/07 09:23:20;;;;;;;11.52;3.85;;;;;;;;;;4863645;29;20025;-72
2021/12/07 09:25:46;;;;;;;12.52;3.60;;;;;;;;;;4864372;29;20445;-73
2021/12/07 09:28:12;;;;;;;8.63;3.50;;;;;;;;;;4864328;29;20042;-72
2021/12/07 09:30:39;;;;;;;8.38;3.55;;;;;;;;;;4863700;29;20391;-75
2021/12/07 09:33:05;;;;;;;12.68;4.15;;;;;;;;;;4864650;29;20049;-76
2021/12/07 09:35:31;;;;;;;16.65;4.57;;;;;;;;;;4863534;29;20030;-71
2021/12/07 09:37:57;;;;;;;17.20;4.50;;;;;;;;;;4863127;29;20057;-71
2021/12/07 09:40:25;;;;;;;47.85;5.10;;;;;;;;;;4865234;29;20537;-73
2021/12/07 09:42:52;;;;;;;30.65;4.47;;;;;;;;;;4864993;29;20052;-72
2021/12/07 09:45:19;;;;;;;24.10;3.95;;;;;;;;;;4863522;29;20060;-71
2021/12/07 09:47:47;;;;;;;19.90;3.92;;;;;;;;;;4863065;29;20029;-69
2021/12/07 09:50:17;;;;;;;22.95;3.38;;;;;;;;;;4864567;29;20046;-72
2021/12/07 09:52:45;;;;;;;21.52;3.97;;;;;;;;;;4864756;29;20166;-73
2021/12/07 09:55:12;;;;;;;46.97;4.82;;;;;;;;;;4861272;29;20473;-72
2021/12/07 09:57:38;;;;;;;21.80;3.30;;;;;;;;;;4862144;29;20053;-71
2021/12/07 10:00:07;;;;;;;17.02;3.15;;;;;;;;;;4862432;29;20054;-74
2021/12/07 10:02:38;;;;;;;11.93;3.50;;;;;;;;;;4862275;29;20460;-73
2021/12/07 10:05:05;;;;;;;41.25;4.93;;;;;;;;;;4862107;29;20094;-71
2021/12/07 10:07:30;;;;;;;100.75;6.90;;;;;;;;;;4862328;29;20057;-72
2021/12/07 10:09:56;;;;;;;12.05;2.28;;;;;;;;;;4862063;29;20568;-75
2021/12/07 10:12:24;;;;;;;17.65;2.90;;;;;;;;;;4862456;29;20457;-73
2021/12/07 10:14:50;;;;;;;18.50;3.45;;;;;;;;;;4862076;29;20498;-72
2021/12/07 10:17:23;;;;;;;32.85;5.53;;;;;;;;;;4862087;29;20473;-74
2021/12/07 10:19:49;;;;;;;12.65;3.97;;;;;;;;;;4861363;29;20042;-74
2021/12/07 10:22:21;;;;;;;20.85;4.38;;;;;;;;;;4861755;29;20040;-75
2021/12/07 10:24:54;;;;;;;19.70;4.45;;;;;;;;;;4861684;29;20203;-71
2021/12/07 10:27:43;;;;;;;11.77;3.25;;;;;;;;;;4862032;29;20041;-70
2021/12/07 10:30:18;;;;;;;10.05;2.95;;;;;;;;;;4861642;29;20033;-71
2021/12/07 10:33:00;;;;;;;7.43;2.85;;;;;;;;;;4861769;29;20090;-72
2021/12/07 10:35:28;;;;;;;8.57;3.67;;;;;;;;;;4861732;29;20037;-71
2021/12/07 10:38:16;;;;;;;15.32;3.60;;;;;;;;;;4861489;29;20022;-70
2021/12/07 10:41:07;;;;;;;7.05;2.85;;;;;;;;;;4861902;29;20029;-71
2021/12/07 10:43:39;;;;;;;4.00;2.00;;;;;;;;;;4861374;29;20048;-70
2021/12/07 10:46:24;;;;;;;5.63;1.93;;;;;;;;;;4860663;29;20034;-72
2021/12/07 10:48:50;;;;;;;45.40;6.07;;;;;;;;;;4860549;29;20410;-71
2021/12/07 10:51:16;;;;;;;35.15;5.22;;;;;;;;;;4861490;29;20161;-72
2021/12/07 10:53:54;;;;;;;5.93;2.40;;;;;;;;;;4861202;29;20520;-72
2021/12/07 10:56:35;;;;;;;13.18;3.40;;;;;;;;;;4860871;29;20030;-71
2021/12/07 10:59:05;;;;;;;9.38;3.53;;;;;;;;;;4861022;29;20955;-70
2021/12/07 11:01:40;;;;;;;9.07;3.38;;;;;;;;;;4871459;29;20075;-72
2021/12/07 11:04:23;;;;;;;15.45;3.10;;;;;;;;;;4860555;29;20026;-68
2021/12/07 11:07:05;;;;;;;12.95;3.75;;;;;;;;;;4874538;29;20139;-70
2021/12/07 11:09:45;;;;;;;15.70;3.38;;;;;;;;;;4859604;29;20048;-69
2021/12/07 11:12:16;;;;;;;3.25;2.17;;;;;;;;;;4861044;29;20033;-71
2021/12/07 11:14:52;;;;;;;4.00;2.38;;;;;;;;;;4857885;29;20042;-70
2021/12/07 11:17:28;;;;;;;5.50;1.95;;;;;;;;;;4860648;29;20090;-70
2021/12/07 11:19:55;;;;;;;21.35;4.65;;;;;;;;;;4874341;29;20042;-70
2021/12/07 11:22:25;;;;;;;20.15;3.70;;;;;;;;;;4860474;29;20029;-68
2021/12/07 11:24:54;;;;;;;21.08;2.95;;;;;;;;;;4857290;29;20048;-70
2021/12/07 11:30:19;;;;;;;7.63;2.40;;;;;;;;;;4860394;29;20043;-69
2021/12/07 11:32:54;;;;;;;12.27;2.60;;;;;;;;;;4849546;29;20370;-71
2021/12/07 11:35:33;;;;;;;9.38;2.50;;;;;;;;;;4860480;29;20033;-71
2021/12/07 11:38:04;;;;;;;7.53;3.72;;;;;;;;;;4860250;29;20045;-71
2021/12/07 11:40:36;;;;;;;11.18;2.92;;;;;;;;;;4860060;29;20481;-74
2021/12/07 11:43:14;;;;;;;10.57;2.38;;;;;;;;;;4854172;29;20485;-73
2021/12/07 11:45:43;;;;;;;15.07;2.30;;;;;;;;;;4847814;29;20162;-75
2021/12/07 11:48:09;;;;;;;9.68;1.95;;;;;;;;;;4841492;29;20034;-72
2021/12/07 11:50:50;;;;;;;17.10;2.67;;;;;;;;;;4854846;29;20133;-72
2021/12/07 11:53:20;;;;;;;19.85;3.75;;;;;;;;;;4860188;29;20484;-73
2021/12/07 11:55:49;;;;;;;13.68;2.90;;;;;;;;;;4857958;29;20029;-73
2021/12/07 11:58:16;;;;;;;11.90;2.00;;;;;;;;;;4853230;29;20053;-75
2021/12/07 12:00:47;;;;;;;16.20;3.20;;;;;;;;;;4853856;29;20067;-69
2021/12/07 12:03:16;;;;;;;12.88;2.70;;;;;;;;;;4846490;29;20129;-75
2021/12/07 12:05:44;;;;;;;19.25;3.25;;;;;;;;;;4841967;29;20042;-74
2021/12/07 12:08:13;;;;;;;2.78;1.65;;;;;;;;;;4841249;29;20034;-70
2021/12/07 12:10:46;;;;;;;18.02;3.42;;;;;;;;;;4840959;29;20390;-72
2021/12/07 12:13:42;;;;;;;86.68;5.97;;;;;;;;;;4853372;29;20049;-68
2021/12/07 12:16:22;;;;;;;38.80;4.55;;;;;;;;;;4859563;29;20033;-73
2021/12/07 12:19:02;;;;;;;7.15;2.50;;;;;;;;;;4851182;29;20054;-69
2021/12/07 12:21:34;;;;;;;12.73;2.95;;;;;;;;;;4840938;29;20080;-68
2021/12/07 12:24:00;;;;;;;18.95;4.45;;;;;;;;;;4854392;29;20148;-71
2021/12/07 12:26:27;;;;;;;31.55;4.13;;;;;;;;;;4859101;29;20565;-70
2021/12/07 12:28:54;;;;;;;22.98;3.90;;;;;;;;;;4859464;29;20064;-70
2021/12/07 12:31:52;;;;;;;10.95;3.17;;;;;;;;;;4859453;29;20029;-70
2021/12/07 12:34:21;;;;;;;9.93;3.90;;;;;;;;;;4859679;29;20069;-69
2021/12/07 12:36:56;;;;;;;7.03;3.40;;;;;;;;;;4859335;29;20057;-69
2021/12/07 12:39:58;;;;;;;11.80;4.05;;;;;;;;;;4859098;29;20061;-70
2021/12/07 12:42:38;;;;;;;13.05;2.95;;;;;;;;;;4859347;29;20057;-68
2021/12/07 12:45:29;;;;;;;9.10;3.92;;;;;;;;;;4855698;29;20048;-74
2021/12/07 12:48:01;;;;;;;13.80;4.57;;;;;;;;;;4859390;29;20493;-70
2021/12/07 12:50:31;;;;;;;10.93;6.00;;;;;;;;;;4853158;29;20038;-69
2021/12/07 12:53:01;;;;;;;8.50;4.43;;;;;;;;;;4856255;29;20041;-71
2021/12/07 12:55:41;;;;;;;11.98;5.07;;;;;;;;;;4859174;29;20052;-70
2021/12/07 12:58:12;;;;;;;13.63;6.20;;;;;;;;;;4858606;29;20034;-69
2021/12/07 13:00:59;;;;;;;10.63;5.53;;;;;;;;;;4844773;29;20038;-70
2021/12/07 13:03:37;;;;;;;7.55;4.40;;;;;;;;;;4839645;29;20091;-71
2021/12/07 13:06:03;;;;;;;7.72;4.20;;;;;;;;;;4841629;29;20042;-70
2021/12/07 13:08:29;;;;;;;8.52;7.00;;;;;;;;;;4841119;29;20026;-70
2021/12/07 13:11:03;;;;;;;13.85;11.00;;;;;;;;;;4840656;29;20504;-71
2021/12/07 13:13:32;;;;;;;;;;;;;;;;;;4841387;29;20195;-70
2021/12/07 13:15:58;;;;;;;9.10;4.18;;;;;;;;;;4840899;29;19920;-70
2021/12/07 13:18:32;;;;;;;6.35;4.40;;;;;;;;;;4841071;29;20045;-70
2021/12/07 13:20:58;;;;;;;8.40;3.83;;;;;;;;;;4841482;29;20049;-69
2021/12/07 13:23:31;;;;;;;8.95;4.10;;;;;;;;;;4840938;29;20034;-71
2021/12/07 13:25:58;;;;;;;6.85;5.05;;;;;;;;;;4840425;29;20130;-69
2021/12/07 13:28:33;;;;;;;9.57;5.78;;;;;;;;;;4846898;29;20036;-72
2021/12/07 13:31:18;;;;;;;7.45;4.72;;;;;;;;;;4862790;29;20493;-69
2021/12/07 13:33:49;;;;;;;4.60;2.72;;;;;;;;;;4857562;29;20105;-70
2021/12/07 13:36:27;;;;;;;7.35;4.38;;;;;;;;;;4851858;29;20037;-68
2021/12/07 13:38:54;;;;;;;6.30;3.78;;;;;;;;;;4862628;29;20049;-70
2021/12/07 13:41:21;;;;;;;5.40;3.67;;;;;;;;;;4862728;29;20077;-68
2021/12/07 13:43:51;;;;;;;8.43;4.80;;;;;;;;;;4862499;29;20477;-75
2021/12/07 13:46:24;;;;;;;6.97;4.45;;;;;;;;;;4855757;29;20116;-74
2021/12/07 13:48:52;;;;;;;10.13;5.40;;;;;;;;;;4852837;29;20026;-76
2021/12/07 13:51:21;;;;;;;10.65;5.63;;;;;;;;;;4862590;29;20022;-73
2021/12/07 13:53:48;;;;;;;8.63;5.00;;;;;;;;;;4861897;29;20065;-74
2021/12/07 13:56:14;;;;;;;10.23;5.65;;;;;;;;;;4862408;29;20040;-76
2021/12/07 13:59:03;;;;;;;7.38;3.70;;;;;;;;;;4862270;29;20046;-75
2021/12/07 14:01:31;;;;;;;5.22;2.58;;;;;;;;;;4862330;29;20072;-75
2021/12/07 14:03:59;;;;;;;4.10;2.60;;;;;;;;;;4862597;29;20033;-72
2021/12/07 14:06:26;;;;;;;8.55;3.47;;;;;;;;;;4857878;29;20034;-69
2021/12/07 14:08:52;;;;;;;7.57;3.42;;;;;;;;;;4860295;29;20392;-72
2021/12/07 14:11:19;;;;;;;6.93;2.92;;;;;;;;;;4862201;29;20041;-70
2021/12/07 14:13:47;;;;;;;4.45;2.58;;;;;;;;;;4861866;29;20037;-73
2021/12/07 14:16:16;;;;;;;3.28;2.30;;;;;;;;;;4861272;29;20105;-70
2021/12/07 14:18:43;;;;;;;3.97;2.78;;;;;;;;;;4861694;29;20038;-69
2021/12/07 14:21:10;;;;;;;5.13;3.00;;;;;;;;;;4856718;29;20052;-72
2021/12/07 14:23:43;;;;;;;8.13;3.67;;;;;;;;;;4860448;29;20401;-73
2021/12/07 14:26:11;;;;;;;;;;;;;;;;;;4855272;29;20387;-69
2021/12/07 14:28:39;;;;;;;6.25;3.92;;;;;;;;;;4860561;29;19912;-72
2021/12/07 14:31:33;;;;;;;4.70;3.35;;;;;;;;;;4863216;29;20045;-74
2021/12/07 14:34:21;;;;;;;5.28;2.65;;;;;;;;;;4852025;29;20056;-69
2021/12/07 14:36:48;;;;;;;6.47;2.55;;;;;;;;;;4862795;29;20106;-69
2021/12/07 14:39:32;;;;;;;9.65;3.03;;;;;;;;;;4862424;29;20117;-70
2021/12/07 14:42:02;;;;;;;3.72;2.47;;;;;;;;;;4861056;29;20037;-73
2021/12/07 14:44:31;;;;;;;6.40;3.30;;;;;;;;;;4862493;29;20029;-75
2021/12/07 14:47:00;;;;;;;7.70;3.33;;;;;;;;;;4861444;29;20045;-73
2021/12/07 14:49:27;;;;;;;6.18;3.35;;;;;;;;;;4861417;29;20055;-69
2021/12/07 14:51:53;;;;;;;6.93;3.33;;;;;;;;;;4862201;29;20053;-71
2021/12/07 14:54:19;;;;;;;9.25;4.38;;;;;;;;;;4860982;29;20026;-73
2021/12/07 14:56:47;;;;;;;7.45;4.63;;;;;;;;;;4861816;29;20062;-73
2021/12/07 14:59:15;;;;;;;6.70;4.40;;;;;;;;;;4861741;29;20033;-71
2021/12/07 15:01:47;;;;;;;8.30;4.35;;;;;;;;;;4861500;29;20481;-70
2021/12/07 15:04:15;;;;;;;8.95;5.20;;;;;;;;;;4862022;29;20073;-73
2021/12/07 15:06:46;;;;;;;9.90;6.82;;;;;;;;;;4861620;29;20500;-72
2021/12/07 15:09:12;;;;;;;10.40;7.80;;;;;;;;;;4861552;29;20041;-73
2021/12/07 15:11:40;;;;;;;9.38;6.55;;;;;;;;;;4861417;29;20033;-73
2021/12/07 15:14:10;;;;;;;8.00;4.32;;;;;;;;;;4861611;29;20468;-73
2021/12/07 15:16:38;;;;;;;6.90;4.43;;;;;;;;;;4861745;29;20405;-74
2021/12/07 15:19:04;;;;;;;10.40;5.72;;;;;;;;;;4861305;29;20045;-74
2021/12/07 15:21:32;;;;;;;9.23;5.97;;;;;;;;;;4861033;29;20097;-72
2021/12/07 15:24:02;;;;;;;8.18;5.65;;;;;;;;;;4861146;29;20036;-71
2021/12/07 15:26:28;;;;;;;6.35;4.47;;;;;;;;;;4859488;29;20438;-72
2021/12/07 15:29:12;;;;;;;8.52;5.43;;;;;;;;;;4852555;29;20026;-74
2021/12/07 15:31:42;;;;;;;6.95;5.25;;;;;;;;;;4861316;29;20474;-73
2021/12/07 15:34:10;;;;;;;8.23;5.45;;;;;;;;;;4860957;29;20029;-74
2021/12/07 15:36:40;;;;;;;8.38;5.75;;;;;;;;;;4860886;29;20397;-76
2021/12/07 15:39:26;;;;;;;9.23;6.05;;;;;;;;;;4860330;29;20052;-74
2021/12/07 15:41:53;;;;;;;8.85;5.78;;;;;;;;;;4860774;29;20053;-71
2021/12/07 15:44:26;;;;;;;7.32;4.80;;;;;;;;;;4858668;29;20041;-72
2021/12/07 15:46:57;;;;;;;9.00;5.45;;;;;;;;;;4850900;29;20040;-73
2021/12/07 15:49:30;;;;;;;8.93;5.65;;;;;;;;;;4843600;29;20038;-70
2021/12/07 15:52:00;;;;;;;7.87;5.20;;;;;;;;;;4855101;29;20034;-72
2021/12/07 15:54:26;;;;;;;9.27;5.82;;;;;;;;;;4840945;29;20049;-68
2021/12/07 15:57:02;;;;;;;13.02;7.95;;;;;;;;;;4843577;29;21615;-69
2021/12/07 15:59:29;;;;;;;11.77;7.85;;;;;;;;;;4851776;29;20049;-66
2021/12/07 16:01:56;;;;;;;7.97;5.13;;;;;;;;;;4851651;29;20469;-67
2021/12/07 16:04:34;;;;;;;8.98;6.28;;;;;;;;;;4859244;29;20126;-66
2021/12/07 16:07:01;;;;;;;15.55;5.82;;;;;;;;;;4860001;29;20030;-66
2021/12/07 16:09:27;;;;;;;8.18;5.13;;;;;;;;;;4851940;29;20045;-66
2021/12/07 16:11:53;;;;;;;15.00;8.15;;;;;;;;;;4853545;29;20030;-66
2021/12/07 16:14:27;;;;;;;7.65;5.40;;;;;;;;;;4853263;29;20018;-65
2021/12/07 16:16:54;;;;;;;8.50;5.13;;;;;;;;;;4858904;29;20037;-65
2021/12/07 16:19:21;;;;;;;11.48;6.63;;;;;;;;;;4860071;29;20508;-63
2021/12/07 16:21:47;;;;;;;12.80;6.30;;;;;;;;;;4855377;29;20493;-66
2021/12/07 16:24:13;;;;;;;8.73;5.18;;;;;;;;;;4851720;29;20026;-67
2021/12/07 16:26:39;;;;;;;11.43;5.50;;;;;;;;;;4851354;29;20080;-66
2021/12/07 16:29:06;;;;;;;27.58;7.53;;;;;;;;;;4850792;29;20065;-65